createdAt,value
2017-09-16T00:00:22.271Z,1006.07
2017-09-16T00:01:02.853Z,1006.11
2017-09-16T00:01:43.435Z,1006.07
2017-09-16T00:02:24.052Z,1006.05
2017-09-16T00:03:04.613Z,1006.04
2017-09-16T00:03:45.185Z,1006.08
2017-09-16T00:04:25.752Z,1006.1
2017-09-16T00:05:06.429Z,1006.08
2017-09-16T00:05:47.027Z,1006.09
2017-09-16T00:06:27.663Z,1006.08
2017-09-16T00:07:08.199Z,1006.06
2017-09-16T00:07:48.786Z,1006.06
2017-09-16T00:08:29.340Z,1006.08
2017-09-16T00:09:09.893Z,1006.07
2017-09-16T00:09:50.501Z,1006.05
2017-09-16T00:10:31.040Z,1006.07
2017-09-16T00:11:11.596Z,1006.06
2017-09-16T00:11:52.206Z,1006.05
2017-09-16T00:12:32.763Z,1006.07
2017-09-16T00:13:13.323Z,1006.03
2017-09-16T00:13:54.116Z,1006.01
2017-09-16T00:14:34.719Z,1006.03
2017-09-16T00:15:15.307Z,1006.06
2017-09-16T00:15:55.870Z,1006.05
2017-09-16T00:16:36.463Z,1006.05
2017-09-16T00:17:17.014Z,1006.03
2017-09-16T00:17:57.583Z,1005.99
2017-09-16T00:18:38.166Z,1006
2017-09-16T00:19:18.718Z,1005.97
2017-09-16T00:19:59.309Z,1005.99
2017-09-16T00:20:39.935Z,1006.04
2017-09-16T00:21:20.520Z,1006
2017-09-16T00:22:01.068Z,1005.95
2017-09-16T00:22:41.649Z,1005.97
2017-09-16T00:23:22.268Z,1005.95
2017-09-16T00:24:02.835Z,1005.94
2017-09-16T00:24:43.413Z,1005.91
2017-09-16T00:25:24.020Z,1005.95
2017-09-16T00:26:04.611Z,1005.92
2017-09-16T00:26:45.195Z,1005.93
2017-09-16T00:27:25.775Z,1005.94
2017-09-16T00:28:06.341Z,1005.93
2017-09-16T00:28:46.905Z,1005.92
2017-09-16T00:29:27.469Z,1005.93
2017-09-16T00:30:08.056Z,1005.93
2017-09-16T00:30:48.692Z,1005.94
2017-09-16T00:31:29.313Z,1005.91
2017-09-16T00:32:09.875Z,1005.96
2017-09-16T00:32:50.452Z,1005.93
2017-09-16T00:33:31.017Z,1005.93
2017-09-16T00:34:11.579Z,1005.9
2017-09-16T00:34:52.157Z,1005.9
2017-09-16T00:35:32.722Z,1005.9
2017-09-16T00:36:13.281Z,1005.92
2017-09-16T00:36:53.842Z,1005.91
2017-09-16T00:37:34.445Z,1005.9
2017-09-16T00:38:15.004Z,1005.92
2017-09-16T00:38:55.570Z,1005.91
2017-09-16T00:39:36.152Z,1005.87
2017-09-16T00:40:16.748Z,1005.89
2017-09-16T00:40:57.319Z,1005.89
2017-09-16T00:41:37.877Z,1005.93
2017-09-16T00:42:18.495Z,1005.92
2017-09-16T00:42:59.037Z,1005.91
2017-09-16T00:43:39.649Z,1005.93
2017-09-16T00:44:20.234Z,1005.96
2017-09-16T00:45:00.797Z,1005.91
2017-09-16T00:45:41.372Z,1005.96
2017-09-16T00:46:21.971Z,1005.94
2017-09-16T00:47:02.536Z,1005.93
2017-09-16T00:47:43.098Z,1005.93
2017-09-16T00:48:23.660Z,1005.95
2017-09-16T00:49:04.207Z,1005.95
2017-09-16T00:49:44.784Z,1005.94
2017-09-16T00:50:25.362Z,1005.92
2017-09-16T00:51:06.040Z,1005.92
2017-09-16T00:51:46.618Z,1005.91
2017-09-16T00:52:27.208Z,1005.92
2017-09-16T00:53:07.796Z,1005.9
2017-09-16T00:53:48.336Z,1005.91
2017-09-16T00:54:28.913Z,1005.92
2017-09-16T00:55:09.470Z,1005.87
2017-09-16T00:55:50.051Z,1005.92
2017-09-16T00:56:30.656Z,1005.93
2017-09-16T00:57:11.230Z,1005.87
2017-09-16T00:57:51.777Z,1005.87
2017-09-16T00:58:32.328Z,1005.84
2017-09-16T00:59:12.890Z,1005.86
2017-09-16T00:59:53.502Z,1005.86
2017-09-16T01:00:34.106Z,1005.84
2017-09-16T01:01:14.666Z,1005.84
2017-09-16T01:01:55.230Z,1005.84
2017-09-16T01:02:35.890Z,1005.86
2017-09-16T01:03:16.427Z,1005.85
2017-09-16T01:03:57.017Z,1005.86
2017-09-16T01:04:37.572Z,1005.83
2017-09-16T01:05:18.166Z,1005.84
2017-09-16T01:05:58.709Z,1005.85
2017-09-16T01:06:39.286Z,1005.84
2017-09-16T01:07:19.884Z,1005.79
2017-09-16T01:08:00.453Z,1005.81
2017-09-16T01:08:41.028Z,1005.84
2017-09-16T01:09:21.590Z,1005.82
2017-09-16T01:10:02.151Z,1005.79
2017-09-16T01:10:42.729Z,1005.8
2017-09-16T01:11:23.314Z,1005.79
2017-09-16T01:12:03.884Z,1005.79
2017-09-16T01:12:44.437Z,1005.78
2017-09-16T01:13:25.016Z,1005.78
2017-09-16T01:14:05.598Z,1005.79
2017-09-16T01:14:46.158Z,1005.81
2017-09-16T01:15:26.722Z,1005.83
2017-09-16T01:16:07.272Z,1005.86
2017-09-16T01:16:47.842Z,1005.85
2017-09-16T01:17:28.397Z,1005.87
2017-09-16T01:18:08.986Z,1005.88
2017-09-16T01:18:49.544Z,1005.9
2017-09-16T01:19:30.130Z,1005.89
2017-09-16T01:20:10.714Z,1005.88
2017-09-16T01:20:51.326Z,1005.89
2017-09-16T01:21:31.907Z,1005.95
2017-09-16T01:22:12.462Z,1005.95
2017-09-16T01:22:53.018Z,1005.97
2017-09-16T01:23:33.599Z,1005.96
2017-09-16T01:24:14.168Z,1005.95
2017-09-16T01:24:54.778Z,1005.98
2017-09-16T01:25:35.362Z,1005.97
2017-09-16T01:26:16.021Z,1006.02
2017-09-16T01:26:56.599Z,1005.98
2017-09-16T01:27:37.162Z,1005.95
2017-09-16T01:28:17.749Z,1005.96
2017-09-16T01:28:58.533Z,1005.97
2017-09-16T01:29:39.088Z,1005.95
2017-09-16T01:30:19.719Z,1005.93
2017-09-16T01:31:00.305Z,1005.94
2017-09-16T01:31:40.862Z,1005.93
2017-09-16T01:32:21.438Z,1005.91
2017-09-16T01:33:02.010Z,1005.92
2017-09-16T01:33:42.577Z,1005.91
2017-09-16T01:34:23.127Z,1005.92
2017-09-16T01:35:03.679Z,1005.87
2017-09-16T01:35:44.269Z,1005.88
2017-09-16T01:36:24.914Z,1005.93
2017-09-16T01:37:05.495Z,1005.87
2017-09-16T01:37:46.050Z,1005.88
2017-09-16T01:38:26.649Z,1005.83
2017-09-16T01:39:07.215Z,1005.87
2017-09-16T01:39:47.782Z,1005.89
2017-09-16T01:40:28.351Z,1005.89
2017-09-16T01:41:08.928Z,1005.86
2017-09-16T01:41:49.487Z,1005.86
2017-09-16T01:42:30.049Z,1005.92
2017-09-16T01:43:10.630Z,1005.89
2017-09-16T01:43:51.186Z,1005.91
2017-09-16T01:44:31.752Z,1005.86
2017-09-16T01:45:12.337Z,1005.88
2017-09-16T01:45:52.904Z,1005.9
2017-09-16T01:46:33.459Z,1005.86
2017-09-16T01:47:14.026Z,1005.86
2017-09-16T01:47:54.586Z,1005.85
2017-09-16T01:48:35.151Z,1005.88
2017-09-16T01:49:15.741Z,1005.86
2017-09-16T01:49:56.314Z,1005.87
2017-09-16T01:50:36.911Z,1005.89
2017-09-16T01:51:17.522Z,1005.9
2017-09-16T01:51:58.126Z,1005.86
2017-09-16T01:52:38.729Z,1005.9
2017-09-16T01:53:19.338Z,1005.88
2017-09-16T01:53:59.916Z,1005.88
2017-09-16T01:54:40.486Z,1005.89
2017-09-16T01:55:21.107Z,1005.88
2017-09-16T01:56:01.659Z,1005.88
2017-09-16T01:56:42.238Z,1005.87
2017-09-16T01:57:22.826Z,1005.87
2017-09-16T01:58:03.424Z,1005.87
2017-09-16T01:58:43.990Z,1005.86
2017-09-16T01:59:24.554Z,1005.86
2017-09-16T02:00:05.123Z,1005.84
2017-09-16T02:00:45.686Z,1005.85
2017-09-16T02:01:26.273Z,1005.85
2017-09-16T02:02:06.831Z,1005.83
2017-09-16T02:02:47.383Z,1005.84
2017-09-16T02:03:27.942Z,1005.84
2017-09-16T02:04:08.509Z,1005.85
2017-09-16T02:04:49.087Z,1005.87
2017-09-16T02:05:29.661Z,1005.84
2017-09-16T02:06:10.222Z,1005.87
2017-09-16T02:06:50.774Z,1005.85
2017-09-16T02:07:31.339Z,1005.84
2017-09-16T02:08:11.890Z,1005.84
2017-09-16T02:08:52.464Z,1005.85
2017-09-16T02:09:33.034Z,1005.81
2017-09-16T02:10:13.587Z,1005.82
2017-09-16T02:10:54.153Z,1005.81
2017-09-16T02:11:34.714Z,1005.84
2017-09-16T02:12:15.291Z,1005.78
2017-09-16T02:12:55.844Z,1005.8
2017-09-16T02:13:36.406Z,1005.82
2017-09-16T02:14:16.974Z,1005.76
2017-09-16T02:14:57.540Z,1005.75
2017-09-16T02:15:38.097Z,1005.8
2017-09-16T02:16:18.659Z,1005.75
2017-09-16T02:16:59.230Z,1005.77
2017-09-16T02:17:39.798Z,1005.76
2017-09-16T02:18:20.394Z,1005.75
2017-09-16T02:19:00.941Z,1005.73
2017-09-16T02:19:41.506Z,1005.73
2017-09-16T02:20:22.102Z,1005.73
2017-09-16T02:21:02.653Z,1005.75
2017-09-16T02:21:43.241Z,1005.73
2017-09-16T02:22:23.800Z,1005.76
2017-09-16T02:23:04.357Z,1005.77
2017-09-16T02:23:44.908Z,1005.78
2017-09-16T02:24:25.505Z,1005.75
2017-09-16T02:25:06.052Z,1005.76
2017-09-16T02:25:46.608Z,1005.8
2017-09-16T02:26:27.223Z,1005.79
2017-09-16T02:27:07.788Z,1005.78
2017-09-16T02:27:48.365Z,1005.8
2017-09-16T02:28:28.934Z,1005.79
2017-09-16T02:29:09.501Z,1005.79
2017-09-16T02:29:50.107Z,1005.8
2017-09-16T02:30:30.709Z,1005.81
2017-09-16T02:31:11.493Z,1005.81
2017-09-16T02:31:52.083Z,1005.82
2017-09-16T02:32:32.636Z,1005.83
2017-09-16T02:33:13.187Z,1005.79
2017-09-16T02:33:53.763Z,1005.79
2017-09-16T02:34:34.317Z,1005.79
2017-09-16T02:35:14.888Z,1005.77
2017-09-16T02:35:55.446Z,1005.79
2017-09-16T02:36:36.026Z,1005.79
2017-09-16T02:37:16.582Z,1005.78
2017-09-16T02:37:57.144Z,1005.79
2017-09-16T02:38:37.705Z,1005.8
2017-09-16T02:39:18.259Z,1005.79
2017-09-16T02:39:58.819Z,1005.79
2017-09-16T02:40:39.382Z,1005.81
2017-09-16T02:41:19.939Z,1005.8
2017-09-16T02:42:00.499Z,1005.84
2017-09-16T02:42:41.064Z,1005.81
2017-09-16T02:43:21.629Z,1005.84
2017-09-16T02:44:02.196Z,1005.83
2017-09-16T02:44:42.761Z,1005.81
2017-09-16T02:45:23.327Z,1005.81
2017-09-16T02:46:03.881Z,1005.83
2017-09-16T02:46:44.449Z,1005.8
2017-09-16T02:47:25.019Z,1005.86
2017-09-16T02:48:05.571Z,1005.91
2017-09-16T02:48:46.127Z,1005.9
2017-09-16T02:49:26.689Z,1005.9
2017-09-16T02:50:07.265Z,1005.88
2017-09-16T02:50:47.838Z,1005.88
2017-09-16T02:51:28.394Z,1005.88
2017-09-16T02:52:08.993Z,1005.86
2017-09-16T02:52:49.553Z,1005.88
2017-09-16T02:53:30.136Z,1005.89
2017-09-16T02:54:10.707Z,1005.83
2017-09-16T02:54:51.303Z,1005.86
2017-09-16T02:55:31.854Z,1005.83
2017-09-16T02:56:12.439Z,1005.84
2017-09-16T02:56:52.996Z,1005.82
2017-09-16T02:57:33.557Z,1005.78
2017-09-16T02:58:14.111Z,1005.79
2017-09-16T02:58:54.680Z,1005.88
2017-09-16T02:59:35.245Z,1005.83
2017-09-16T03:00:15.813Z,1005.83
2017-09-16T03:00:56.392Z,1005.84
2017-09-16T03:01:36.946Z,1005.87
2017-09-16T03:02:17.515Z,1005.84
2017-09-16T03:02:58.072Z,1005.82
2017-09-16T03:03:38.657Z,1005.86
2017-09-16T03:04:19.215Z,1005.81
2017-09-16T03:04:59.783Z,1005.83
2017-09-16T03:05:40.361Z,1005.78
2017-09-16T03:06:20.934Z,1005.81
2017-09-16T03:07:01.496Z,1005.77
2017-09-16T03:07:42.062Z,1005.81
2017-09-16T03:08:22.625Z,1005.83
2017-09-16T03:09:03.180Z,1005.81
2017-09-16T03:09:43.746Z,1005.77
2017-09-16T03:10:24.308Z,1005.79
2017-09-16T03:11:04.872Z,1005.8
2017-09-16T03:11:45.440Z,1005.78
2017-09-16T03:12:26.023Z,1005.76
2017-09-16T03:13:06.579Z,1005.73
2017-09-16T03:13:47.153Z,1005.75
2017-09-16T03:14:27.718Z,1005.75
2017-09-16T03:15:08.270Z,1005.74
2017-09-16T03:15:48.831Z,1005.69
2017-09-16T03:16:29.401Z,1005.72
2017-09-16T03:17:09.992Z,1005.68
2017-09-16T03:17:50.544Z,1005.71
2017-09-16T03:18:31.136Z,1005.75
2017-09-16T03:19:11.701Z,1005.75
2017-09-16T03:19:52.267Z,1005.75
2017-09-16T03:20:32.836Z,1005.72
2017-09-16T03:21:13.390Z,1005.74
2017-09-16T03:21:53.975Z,1005.75
2017-09-16T03:22:34.533Z,1005.76
2017-09-16T03:23:15.141Z,1005.75
2017-09-16T03:23:55.738Z,1005.78
2017-09-16T03:24:36.335Z,1005.77
2017-09-16T03:25:16.929Z,1005.77
2017-09-16T03:25:57.505Z,1005.8
2017-09-16T03:26:38.060Z,1005.77
2017-09-16T03:27:18.619Z,1005.8
2017-09-16T03:27:59.178Z,1005.8
2017-09-16T03:28:39.756Z,1005.79
2017-09-16T03:29:20.341Z,1005.82
2017-09-16T03:30:00.934Z,1005.83
2017-09-16T03:30:41.515Z,1005.8
2017-09-16T03:31:22.095Z,1005.82
2017-09-16T03:32:02.652Z,1005.84
2017-09-16T03:32:43.268Z,1005.83
2017-09-16T03:33:23.874Z,1005.83
2017-09-16T03:34:04.437Z,1005.82
2017-09-16T03:34:45.151Z,1005.82
2017-09-16T03:35:25.713Z,1005.81
2017-09-16T03:36:06.282Z,1005.8
2017-09-16T03:36:46.837Z,1005.84
2017-09-16T03:37:27.393Z,1005.86
2017-09-16T03:38:07.973Z,1005.85
2017-09-16T03:38:48.556Z,1005.85
2017-09-16T03:39:29.154Z,1005.85
2017-09-16T03:40:09.742Z,1005.87
2017-09-16T03:40:50.300Z,1005.86
2017-09-16T03:41:30.890Z,1005.85
2017-09-16T03:42:11.446Z,1005.84
2017-09-16T03:42:52.035Z,1005.82
2017-09-16T03:43:32.613Z,1005.83
2017-09-16T03:44:13.181Z,1005.85
2017-09-16T03:44:53.742Z,1005.84
2017-09-16T03:45:34.339Z,1005.81
2017-09-16T03:46:14.889Z,1005.85
2017-09-16T03:46:55.444Z,1005.81
2017-09-16T03:47:36.023Z,1005.79
2017-09-16T03:48:16.603Z,1005.78
2017-09-16T03:48:57.162Z,1005.82
2017-09-16T03:49:37.736Z,1005.77
2017-09-16T03:50:18.332Z,1005.77
2017-09-16T03:50:58.880Z,1005.8
2017-09-16T03:51:39.438Z,1005.79
2017-09-16T03:52:19.987Z,1005.8
2017-09-16T03:53:00.552Z,1005.81
2017-09-16T03:53:41.116Z,1005.81
2017-09-16T03:54:21.674Z,1005.75
2017-09-16T03:55:02.250Z,1005.75
2017-09-16T03:55:42.798Z,1005.73
2017-09-16T03:56:23.357Z,1005.73
2017-09-16T03:57:03.940Z,1005.76
2017-09-16T03:57:44.504Z,1005.72
2017-09-16T03:58:25.074Z,1005.69
2017-09-16T03:59:05.634Z,1005.7
2017-09-16T03:59:46.219Z,1005.69
2017-09-16T04:00:26.767Z,1005.67
2017-09-16T04:01:07.320Z,1005.67
2017-09-16T04:01:47.898Z,1005.61
2017-09-16T04:02:28.457Z,1005.65
2017-09-16T04:03:09.026Z,1005.63
2017-09-16T04:03:49.581Z,1005.64
2017-09-16T04:04:30.157Z,1005.66
2017-09-16T04:05:10.719Z,1005.71
2017-09-16T04:05:51.279Z,1005.74
2017-09-16T04:06:31.840Z,1005.76
2017-09-16T04:07:12.399Z,1005.79
2017-09-16T04:07:52.952Z,1005.74
2017-09-16T04:08:33.516Z,1005.81
2017-09-16T04:09:14.082Z,1005.82
2017-09-16T04:09:54.668Z,1005.86
2017-09-16T04:10:35.225Z,1005.87
2017-09-16T04:11:15.783Z,1005.89
2017-09-16T04:11:56.349Z,1005.89
2017-09-16T04:12:36.902Z,1005.9
2017-09-16T04:13:17.460Z,1005.85
2017-09-16T04:13:58.041Z,1005.91
2017-09-16T04:14:38.609Z,1005.89
2017-09-16T04:15:19.181Z,1005.91
2017-09-16T04:15:59.737Z,1005.89
2017-09-16T04:16:40.292Z,1005.86
2017-09-16T04:17:20.857Z,1005.87
2017-09-16T04:18:01.415Z,1005.89
2017-09-16T04:18:41.973Z,1005.85
2017-09-16T04:19:22.545Z,1005.84
2017-09-16T04:20:03.103Z,1005.85
2017-09-16T04:20:43.684Z,1005.88
2017-09-16T04:21:24.250Z,1005.88
2017-09-16T04:22:04.824Z,1005.85
2017-09-16T04:22:45.396Z,1005.85
2017-09-16T04:23:25.951Z,1005.86
2017-09-16T04:24:06.525Z,1005.88
2017-09-16T04:24:47.078Z,1005.9
2017-09-16T04:25:27.642Z,1005.89
2017-09-16T04:26:08.205Z,1005.9
2017-09-16T04:26:48.776Z,1005.89
2017-09-16T04:27:29.356Z,1005.92
2017-09-16T04:28:09.917Z,1005.91
2017-09-16T04:28:50.479Z,1005.94
2017-09-16T04:29:31.056Z,1005.94
2017-09-16T04:30:11.609Z,1005.93
2017-09-16T04:30:52.209Z,1005.95
2017-09-16T04:31:32.767Z,1005.93
2017-09-16T04:32:13.333Z,1005.95
2017-09-16T04:32:53.890Z,1005.97
2017-09-16T04:33:34.446Z,1005.94
2017-09-16T04:34:15.012Z,1006
2017-09-16T04:34:55.566Z,1005.97
2017-09-16T04:35:36.133Z,1005.98
2017-09-16T04:36:16.701Z,1005.98
2017-09-16T04:36:57.272Z,1005.99
2017-09-16T04:37:37.843Z,1005.97
2017-09-16T04:38:18.426Z,1005.94
2017-09-16T04:38:58.978Z,1005.98
2017-09-16T04:39:39.531Z,1005.96
2017-09-16T04:40:20.108Z,1005.97
2017-09-16T04:41:00.682Z,1005.98
2017-09-16T04:41:41.267Z,1006.01
2017-09-16T04:42:21.825Z,1005.96
2017-09-16T04:43:02.378Z,1005.97
2017-09-16T04:43:42.936Z,1005.94
2017-09-16T04:44:23.492Z,1005.93
2017-09-16T04:45:04.059Z,1005.95
2017-09-16T04:45:44.635Z,1005.94
2017-09-16T04:46:25.213Z,1005.97
2017-09-16T04:47:05.785Z,1005.95
2017-09-16T04:47:46.326Z,1005.97
2017-09-16T04:48:26.901Z,1005.97
2017-09-16T04:49:07.467Z,1005.92
2017-09-16T04:49:48.033Z,1005.96
2017-09-16T04:50:28.596Z,1005.92
2017-09-16T04:51:09.165Z,1005.96
2017-09-16T04:51:49.729Z,1006.01
2017-09-16T04:52:30.330Z,1006.01
2017-09-16T04:53:10.904Z,1005.98
2017-09-16T04:53:51.465Z,1006
2017-09-16T04:54:32.035Z,1005.97
2017-09-16T04:55:12.596Z,1006
2017-09-16T04:55:53.187Z,1006.01
2017-09-16T04:56:33.770Z,1005.99
2017-09-16T04:57:14.336Z,1005.96
2017-09-16T04:57:54.902Z,1005.96
2017-09-16T04:58:35.463Z,1005.97
2017-09-16T04:59:16.035Z,1005.95
2017-09-16T04:59:56.596Z,1005.97
2017-09-16T05:00:37.168Z,1005.97
2017-09-16T05:01:17.721Z,1005.99
2017-09-16T05:01:58.270Z,1006.02
2017-09-16T05:02:38.853Z,1005.97
2017-09-16T05:03:19.399Z,1005.98
2017-09-16T05:03:59.979Z,1005.97
2017-09-16T05:04:40.545Z,1005.94
2017-09-16T05:13:18.599Z,1005.99
2017-09-16T05:13:59.155Z,1006
2017-09-16T05:14:39.707Z,1006
2017-09-16T05:15:20.259Z,1005.98
2017-09-16T05:16:00.817Z,1006.01
2017-09-16T05:16:41.374Z,1006
2017-09-16T05:17:21.937Z,1006.01
2017-09-16T05:18:02.492Z,1006.03
2017-09-16T05:18:43.059Z,1006.03
2017-09-16T05:19:23.613Z,1006.03
2017-09-16T05:20:04.173Z,1006.08
2017-09-16T05:20:44.729Z,1006.07
2017-09-16T05:21:25.284Z,1006.05
2017-09-16T05:22:05.838Z,1006.04
2017-09-16T05:22:46.398Z,1006.06
2017-09-16T05:23:26.962Z,1006.08
2017-09-16T05:24:07.521Z,1006.09
2017-09-16T05:24:48.081Z,1006.09
2017-09-16T05:25:28.653Z,1006.09
2017-09-16T05:26:09.209Z,1006.09
2017-09-16T05:26:49.766Z,1006.07
2017-09-16T05:27:30.328Z,1006.06
2017-09-16T05:28:10.881Z,1006.1
2017-09-16T05:28:51.444Z,1006.1
2017-09-16T05:29:31.989Z,1006.1
2017-09-16T05:30:12.550Z,1006.1
2017-09-16T05:30:53.121Z,1006.1
2017-09-16T05:31:33.677Z,1006.16
2017-09-16T05:32:14.236Z,1006.15
2017-09-16T05:32:54.791Z,1006.15
2017-09-16T05:33:35.364Z,1006.11
2017-09-16T05:34:15.926Z,1006.14
2017-09-16T05:34:56.479Z,1006.16
2017-09-16T05:35:37.037Z,1006.13
2017-09-16T05:36:17.607Z,1006.15
2017-09-16T05:36:58.188Z,1006.13
2017-09-16T05:37:38.739Z,1006.09
2017-09-16T05:38:19.317Z,1006.13
2017-09-16T05:38:59.867Z,1006.1
2017-09-16T05:39:40.433Z,1006.16
2017-09-16T05:40:20.978Z,1006.14
2017-09-16T05:41:01.535Z,1006.17
2017-09-16T05:41:42.097Z,1006.16
2017-09-16T05:42:22.647Z,1006.18
2017-09-16T05:43:03.204Z,1006.17
2017-09-16T05:43:43.769Z,1006.14
2017-09-16T05:44:24.335Z,1006.14
2017-09-16T05:45:04.890Z,1006.13
2017-09-16T05:45:45.447Z,1006.14
2017-09-16T05:46:26.008Z,1006.14
2017-09-16T05:47:06.553Z,1006.13
2017-09-16T05:47:47.110Z,1006.13
2017-09-16T05:48:27.677Z,1006.12
2017-09-16T05:49:08.236Z,1006.09
2017-09-16T05:49:48.785Z,1006.13
2017-09-16T05:50:29.335Z,1006.16
2017-09-16T05:51:09.915Z,1006.17
2017-09-16T05:51:50.479Z,1006.16
2017-09-16T05:52:31.052Z,1006.15
2017-09-16T05:53:11.606Z,1006.14
2017-09-16T05:53:52.164Z,1006.14
2017-09-16T05:54:32.733Z,1006.13
2017-09-16T05:55:13.287Z,1006.15
2017-09-16T05:55:53.841Z,1006.16
2017-09-16T05:56:34.415Z,1006.15
2017-09-16T05:57:14.983Z,1006.15
2017-09-16T05:57:55.572Z,1006.18
2017-09-16T05:58:36.132Z,1006.17
2017-09-16T05:59:16.688Z,1006.14
2017-09-16T05:59:57.244Z,1006.16
2017-09-16T06:00:37.822Z,1006.17
2017-09-16T06:01:18.376Z,1006.16
2017-09-16T06:01:58.965Z,1006.15
2017-09-16T06:02:39.531Z,1006.18
2017-09-16T06:03:20.093Z,1006.17
2017-09-16T06:04:00.653Z,1006.17
2017-09-16T06:04:41.242Z,1006.17
2017-09-16T06:05:21.810Z,1006.14
2017-09-16T06:06:02.386Z,1006.17
2017-09-16T06:06:42.931Z,1006.14
2017-09-16T06:07:23.489Z,1006.11
2017-09-16T06:08:04.057Z,1006.13
2017-09-16T06:08:44.660Z,1006.18
2017-09-16T06:09:25.225Z,1006.13
2017-09-16T06:10:05.780Z,1006.16
2017-09-16T06:10:46.349Z,1006.14
2017-09-16T06:11:26.902Z,1006.13
2017-09-16T06:12:07.462Z,1006.11
2017-09-16T06:12:48.034Z,1006.14
2017-09-16T06:13:28.608Z,1006.14
2017-09-16T06:14:09.185Z,1006.15
2017-09-16T06:14:49.747Z,1006.16
2017-09-16T06:15:30.309Z,1006.18
2017-09-16T06:16:10.895Z,1006.15
2017-09-16T06:16:51.467Z,1006.14
2017-09-16T06:17:32.061Z,1006.16
2017-09-16T06:18:12.617Z,1006.16
2017-09-16T06:18:53.205Z,1006.18
2017-09-16T06:19:33.815Z,1006.15
2017-09-16T06:20:14.406Z,1006.16
2017-09-16T06:20:54.959Z,1006.17
2017-09-16T06:21:35.521Z,1006.19
2017-09-16T06:22:16.075Z,1006.18
2017-09-16T06:22:56.631Z,1006.21
2017-09-16T06:23:37.194Z,1006.2
2017-09-16T06:24:17.744Z,1006.25
2017-09-16T06:24:58.292Z,1006.22
2017-09-16T06:25:38.868Z,1006.22
2017-09-16T06:26:19.441Z,1006.24
2017-09-16T06:27:00.010Z,1006.23
2017-09-16T06:27:40.572Z,1006.24
2017-09-16T06:28:21.131Z,1006.22
2017-09-16T06:29:01.683Z,1006.24
2017-09-16T06:29:42.233Z,1006.26
2017-09-16T06:30:22.800Z,1006.21
2017-09-16T06:31:03.361Z,1006.24
2017-09-16T06:31:43.929Z,1006.23
2017-09-16T06:32:24.474Z,1006.27
2017-09-16T06:33:05.037Z,1006.23
2017-09-16T06:33:45.598Z,1006.2
2017-09-16T06:34:26.158Z,1006.24
2017-09-16T06:35:06.726Z,1006.21
2017-09-16T06:35:47.307Z,1006.24
2017-09-16T06:36:27.863Z,1006.22
2017-09-16T06:37:08.413Z,1006.3
2017-09-16T06:37:48.967Z,1006.26
2017-09-16T06:38:29.546Z,1006.3
2017-09-16T06:39:10.111Z,1006.31
2017-09-16T06:39:50.661Z,1006.29
2017-09-16T06:40:31.278Z,1006.29
2017-09-16T06:41:11.855Z,1006.29
2017-09-16T06:41:52.407Z,1006.3
2017-09-16T06:42:32.978Z,1006.32
2017-09-16T06:43:13.545Z,1006.33
2017-09-16T06:43:54.126Z,1006.35
2017-09-16T06:44:34.673Z,1006.36
2017-09-16T06:45:15.225Z,1006.34
2017-09-16T06:45:55.776Z,1006.36
2017-09-16T06:46:36.348Z,1006.32
2017-09-16T06:47:16.916Z,1006.31
2017-09-16T06:47:57.485Z,1006.35
2017-09-16T06:48:38.045Z,1006.35
2017-09-16T06:49:18.611Z,1006.35
2017-09-16T06:49:59.165Z,1006.37
2017-09-16T06:50:39.739Z,1006.36
2017-09-16T06:51:20.309Z,1006.38
2017-09-16T06:52:00.876Z,1006.37
2017-09-16T06:52:41.436Z,1006.4
2017-09-16T06:53:22.005Z,1006.38
2017-09-16T06:54:02.599Z,1006.43
2017-09-16T06:54:43.138Z,1006.42
2017-09-16T06:55:23.690Z,1006.42
2017-09-16T06:56:04.244Z,1006.43
2017-09-16T06:56:44.866Z,1006.49
2017-09-16T06:57:25.424Z,1006.48
2017-09-16T06:58:05.979Z,1006.49
2017-09-16T06:58:46.545Z,1006.53
2017-09-16T06:59:27.114Z,1006.56
2017-09-16T07:00:07.678Z,1006.55
2017-09-16T07:00:48.250Z,1006.6
2017-09-16T07:01:28.812Z,1006.61
2017-09-16T07:02:09.365Z,1006.58
2017-09-16T07:02:49.922Z,1006.62
2017-09-16T07:03:30.498Z,1006.62
2017-09-16T07:04:11.057Z,1006.63
2017-09-16T07:04:51.697Z,1006.64
2017-09-16T07:05:32.273Z,1006.66
2017-09-16T07:06:12.824Z,1006.71
2017-09-16T07:06:53.398Z,1006.7
2017-09-16T07:07:33.960Z,1006.75
2017-09-16T07:08:14.544Z,1006.78
2017-09-16T07:08:55.104Z,1006.8
2017-09-16T07:09:35.674Z,1006.82
2017-09-16T07:10:16.227Z,1006.81
2017-09-16T07:10:56.787Z,1006.82
2017-09-16T07:11:37.365Z,1006.88
2017-09-16T07:12:17.924Z,1006.88
2017-09-16T07:12:58.513Z,1006.88
2017-09-16T07:13:39.070Z,1006.94
2017-09-16T07:14:19.621Z,1006.96
2017-09-16T07:15:00.177Z,1006.96
2017-09-16T07:15:40.745Z,1006.98
2017-09-16T07:16:21.311Z,1006.94
2017-09-16T07:17:01.879Z,1007
2017-09-16T07:17:42.447Z,1007.02
2017-09-16T07:18:23.018Z,1006.98
2017-09-16T07:19:03.600Z,1007.01
2017-09-16T07:19:44.162Z,1007.02
2017-09-16T07:20:24.760Z,1007.04
2017-09-16T07:21:05.330Z,1007.08
2017-09-16T07:21:45.889Z,1007.12
2017-09-16T07:22:26.449Z,1007.12
2017-09-16T07:23:07.012Z,1007.08
2017-09-16T07:23:47.579Z,1007.09
2017-09-16T07:24:28.144Z,1007.11
2017-09-16T07:25:08.734Z,1007.11
2017-09-16T07:25:49.309Z,1007.16
2017-09-16T07:26:29.895Z,1007.16
2017-09-16T07:27:10.461Z,1007.17
2017-09-16T07:27:51.035Z,1007.17
2017-09-16T07:28:31.601Z,1007.19
2017-09-16T07:29:12.178Z,1007.15
2017-09-16T07:29:52.746Z,1007.17
2017-09-16T07:30:33.304Z,1007.16
2017-09-16T07:31:13.965Z,1007.21
2017-09-16T07:31:54.520Z,1007.2
2017-09-16T07:32:35.088Z,1007.21
2017-09-16T07:33:15.648Z,1007.23
2017-09-16T07:33:56.216Z,1007.22
2017-09-16T07:34:36.784Z,1007.27
2017-09-16T07:35:17.362Z,1007.28
2017-09-16T07:35:57.921Z,1007.28
2017-09-16T07:36:38.515Z,1007.29
2017-09-16T07:37:19.117Z,1007.3
2017-09-16T07:37:59.682Z,1007.3
2017-09-16T07:38:40.254Z,1007.32
2017-09-16T07:39:20.823Z,1007.38
2017-09-16T07:40:01.389Z,1007.36
2017-09-16T07:40:41.964Z,1007.38
2017-09-16T07:41:22.533Z,1007.39
2017-09-16T07:42:03.110Z,1007.38
2017-09-16T07:42:43.684Z,1007.41
2017-09-16T07:43:24.272Z,1007.46
2017-09-16T07:44:04.861Z,1007.45
2017-09-16T07:44:45.415Z,1007.49
2017-09-16T07:45:25.976Z,1007.49
2017-09-16T07:46:06.547Z,1007.47
2017-09-16T07:46:47.125Z,1007.41
2017-09-16T07:47:27.695Z,1007.43
2017-09-16T07:48:08.254Z,1007.38
2017-09-16T07:48:48.824Z,1007.41
2017-09-16T07:49:29.416Z,1007.38
2017-09-16T07:50:09.986Z,1007.42
2017-09-16T07:50:50.558Z,1007.37
2017-09-16T07:51:31.136Z,1007.37
2017-09-16T07:52:11.724Z,1007.36
2017-09-16T07:52:52.311Z,1007.39
2017-09-16T07:53:32.905Z,1007.37
2017-09-16T07:54:13.476Z,1007.39
2017-09-16T07:54:54.042Z,1007.4
2017-09-16T07:55:34.622Z,1007.44
2017-09-16T07:56:15.187Z,1007.47
2017-09-16T07:56:55.758Z,1007.44
2017-09-16T07:57:36.328Z,1007.47
2017-09-16T07:58:16.899Z,1007.52
2017-09-16T07:58:57.469Z,1007.51
2017-09-16T07:59:38.120Z,1007.5
2017-09-16T08:00:18.710Z,1007.47
2017-09-16T08:00:59.291Z,1007.5
2017-09-16T08:01:39.863Z,1007.52
2017-09-16T08:02:20.446Z,1007.51
2017-09-16T08:03:01.008Z,1007.52
2017-09-16T08:03:41.582Z,1007.53
2017-09-16T08:04:22.161Z,1007.51
2017-09-16T08:05:02.743Z,1007.54
2017-09-16T08:05:43.317Z,1007.56
2017-09-16T08:06:23.919Z,1007.54
2017-09-16T08:07:04.508Z,1007.58
2017-09-16T08:07:45.074Z,1007.57
2017-09-16T08:08:25.646Z,1007.6
2017-09-16T08:09:06.218Z,1007.61
2017-09-16T08:09:46.793Z,1007.61
2017-09-16T08:10:27.379Z,1007.6
2017-09-16T08:11:07.950Z,1007.6
2017-09-16T08:11:48.523Z,1007.63
2017-09-16T08:12:29.090Z,1007.58
2017-09-16T08:13:09.799Z,1007.6
2017-09-16T08:13:50.369Z,1007.62
2017-09-16T08:14:30.943Z,1007.65
2017-09-16T08:15:11.545Z,1007.65
2017-09-16T08:15:52.117Z,1007.68
2017-09-16T08:16:32.702Z,1007.67
2017-09-16T08:17:13.315Z,1007.64
2017-09-16T08:17:53.896Z,1007.6
2017-09-16T08:18:34.466Z,1007.63
2017-09-16T08:19:15.037Z,1007.64
2017-09-16T08:19:55.612Z,1007.62
2017-09-16T08:20:36.188Z,1007.68